createdAt,value
2019-01-20T00:08:28.644Z,15.90
2019-01-20T00:18:32.495Z,15.00
2019-01-20T00:28:36.701Z,17.37
2019-01-20T00:38:40.620Z,17.13
2019-01-20T00:48:44.591Z,17.57
2019-01-20T00:58:48.445Z,15.80
2019-01-20T01:08:52.395Z,15.27
2019-01-20T01:18:56.270Z,16.57
2019-01-20T01:29:00.137Z,15.73
2019-01-20T01:39:05.565Z,14.50
2019-01-20T01:49:09.527Z,18.13
2019-01-20T01:59:13.468Z,18.43
2019-01-20T02:09:17.365Z,18.17
2019-01-20T02:19:21.325Z,15.43
2019-01-20T02:29:25.262Z,16.90
2019-01-20T02:39:29.164Z,16.33
2019-01-20T02:49:33.139Z,18.67
2019-01-20T02:59:37.085Z,16.67
2019-01-20T03:09:41.045Z,15.57
2019-01-20T03:19:45.015Z,17.23
2019-01-20T03:29:48.991Z,16.83
2019-01-20T03:39:52.855Z,16.57
2019-01-20T03:49:56.805Z,15.97
2019-01-20T04:00:00.748Z,17.40
2019-01-20T04:10:06.574Z,13.87
2019-01-20T04:20:12.271Z,15.67
2019-01-20T04:30:20.987Z,14.67
2019-01-20T04:40:24.949Z,16.30
2019-01-20T04:50:28.827Z,12.97
2019-01-20T05:00:32.679Z,16.50
2019-01-20T05:10:36.558Z,15.77
2019-01-20T05:20:40.435Z,15.13
2019-01-20T05:30:44.503Z,25.77
2019-01-20T05:40:49.768Z,44.67
2019-01-20T05:50:53.635Z,45.83
2019-01-20T06:00:57.527Z,50.77
2019-01-20T06:11:01.464Z,56.33
2019-01-20T06:21:05.308Z,115.13
2019-01-20T06:31:09.183Z,147.33
2019-01-20T06:41:13.044Z,152.93
2019-01-20T06:51:17.062Z,162.37
2019-01-20T07:01:20.964Z,162.10
2019-01-20T07:11:24.937Z,208.67
2019-01-20T07:21:28.877Z,198.67
2019-01-20T07:31:32.799Z,187.57
2019-01-20T07:41:36.718Z,196.10
2019-01-20T07:51:40.645Z,172.97
2019-01-20T08:01:44.702Z,172.70
2019-01-20T08:11:48.593Z,178.37
2019-01-20T08:21:52.556Z,177.67
2019-01-20T08:31:56.525Z,177.70
2019-01-20T08:42:00.501Z,167.73
2019-01-20T08:52:04.371Z,169.70
2019-01-20T09:02:08.366Z,180.90
2019-01-20T09:12:13.868Z,172.30
2019-01-20T09:22:17.755Z,185.37
2019-01-20T09:32:21.632Z,182.17
2019-01-20T09:42:25.829Z,171.80
2019-01-20T09:52:29.793Z,178.50
2019-01-20T10:02:33.675Z,169.40
2019-01-20T10:12:37.662Z,173.10
2019-01-20T10:22:41.617Z,167.90
2019-01-20T10:32:47.958Z,177.30
2019-01-20T10:42:51.133Z,171.90
2019-01-20T10:52:55.090Z,170.33
2019-01-20T11:02:59.086Z,178.80
2019-01-20T11:13:03.088Z,175.20
2019-01-20T11:23:07.085Z,186.20
2019-01-20T11:33:11.045Z,176.00
2019-01-20T11:43:14.972Z,170.87
2019-01-20T11:53:18.964Z,165.87
2019-01-20T12:03:22.845Z,174.80
2019-01-20T12:13:26.933Z,163.50
2019-01-20T12:23:30.891Z,164.13
2019-01-20T12:33:34.903Z,163.40
2019-01-20T12:43:38.805Z,155.53
2019-01-20T12:53:42.765Z,155.90
2019-01-20T13:03:46.800Z,153.00
2019-01-20T13:13:50.770Z,153.60
2019-01-20T13:23:54.734Z,147.63
2019-01-20T13:33:58.610Z,147.70
2019-01-20T13:44:02.526Z,146.40
2019-01-20T13:54:06.520Z,153.83
2019-01-20T14:04:10.405Z,142.40
2019-01-20T14:14:14.272Z,145.60
2019-01-20T14:24:18.165Z,137.43
2019-01-20T14:34:22.134Z,140.23
2019-01-20T14:44:26.132Z,105.27
2019-01-20T14:54:30.606Z,79.93
2019-01-20T15:04:34.605Z,87.67
2019-01-20T15:14:38.567Z,72.97
2019-01-20T15:24:42.445Z,59.10
2019-01-20T15:34:47.982Z,68.00
2019-01-20T15:44:51.879Z,56.50
2019-01-20T15:54:55.943Z,54.87
2019-01-20T16:04:59.874Z,56.80
2019-01-20T16:15:05.642Z,55.70
2019-01-20T16:25:32.823Z,54.30
2019-01-20T16:35:37.007Z,59.23
2019-01-20T16:45:42.389Z,58.43
2019-01-20T16:55:49.307Z,62.40
2019-01-20T17:05:55.886Z,56.07
2019-01-20T17:16:01.314Z,59.97
2019-01-20T17:26:05.597Z,56.23
2019-01-20T17:36:09.888Z,58.50
2019-01-20T17:46:13.826Z,59.03
2019-01-20T17:56:18.295Z,57.63
2019-01-20T18:06:23.051Z,54.17
2019-01-20T18:16:31.536Z,54.80
2019-01-20T18:26:35.754Z,60.67
2019-01-20T18:36:40.211Z,51.77
2019-01-20T18:46:46.646Z,53.37
2019-01-20T18:56:51.048Z,48.50
2019-01-20T19:06:55.246Z,35.50
2019-01-20T19:17:00.734Z,42.03
2019-01-20T19:27:05.086Z,31.23
2019-01-20T19:37:09.220Z,21.27
2019-01-20T19:47:13.286Z,19.20
2019-01-20T19:57:17.446Z,20.27
2019-01-20T20:07:22.559Z,13.13
2019-01-20T20:17:27.265Z,14.40
2019-01-20T20:27:31.424Z,12.57
2019-01-20T20:37:35.930Z,12.63
2019-01-20T20:47:39.877Z,15.40
2019-01-20T20:57:44.053Z,21.37
2019-01-20T21:07:48.245Z,28.47
2019-01-20T21:17:52.286Z,23.67
2019-01-20T21:27:56.567Z,21.10
2019-01-20T21:38:06.785Z,22.70
2019-01-20T21:48:06.654Z,21.33
2019-01-20T21:58:10.651Z,19.00
2019-01-20T22:08:14.613Z,21.33
2019-01-20T22:18:18.588Z,21.33
2019-01-20T22:28:22.591Z,22.67
2019-01-20T22:38:26.535Z,20.20
2019-01-20T22:48:30.405Z,22.93
2019-01-20T22:58:34.349Z,23.87
2019-01-20T23:08:38.214Z,24.53
2019-01-20T23:18:42.173Z,22.60
2019-01-20T23:28:46.187Z,23.50
2019-01-20T23:38:50.182Z,21.53
2019-01-20T23:48:54.085Z,23.77
2019-01-20T23:58:58.111Z,23.70
